createdAt,value
2019-02-07T00:02:10.648Z,16.63
2019-02-07T00:07:06.513Z,16.40
2019-02-07T00:12:02.385Z,17.80
2019-02-07T00:16:58.182Z,18.73
2019-02-07T00:21:53.859Z,17.13
2019-02-07T00:26:54.518Z,18.23
2019-02-07T00:31:50.204Z,16.40
2019-02-07T00:36:46.049Z,16.50
2019-02-07T00:41:41.844Z,16.03
2019-02-07T00:46:37.587Z,14.07
2019-02-07T00:51:33.387Z,15.03
2019-02-07T00:56:29.123Z,15.73
2019-02-07T01:01:24.803Z,16.47
2019-02-07T01:06:20.708Z,15.30
2019-02-07T01:11:16.495Z,15.20
2019-02-07T01:16:12.670Z,14.97
2019-02-07T01:21:08.589Z,15.83
2019-02-07T01:26:06.066Z,15.50
2019-02-07T01:31:01.800Z,15.23
2019-02-07T01:35:58.825Z,15.90
2019-02-07T01:40:54.674Z,14.37
2019-02-07T01:45:51.690Z,14.07
2019-02-07T01:50:47.507Z,15.07
2019-02-07T01:55:43.293Z,16.07
2019-02-07T02:00:39.124Z,15.27
2019-02-07T02:05:35.094Z,15.13
2019-02-07T02:10:31.292Z,15.30
2019-02-07T02:15:27.395Z,15.63
2019-02-07T02:20:24.495Z,13.60
2019-02-07T02:25:20.892Z,14.03
2019-02-07T02:30:19.133Z,13.97
2019-02-07T02:35:15.757Z,13.60
2019-02-07T02:40:11.749Z,13.37
2019-02-07T02:45:10.491Z,14.20
2019-02-07T02:50:07.985Z,13.77
2019-02-07T02:55:04.167Z,13.47
2019-02-07T02:59:59.961Z,13.10
2019-02-07T03:05:03.227Z,13.40
2019-02-07T03:10:18.509Z,14.90
2019-02-07T03:15:49.723Z,14.07
2019-02-07T03:20:54.593Z,14.33
2019-02-07T03:26:09.438Z,13.17
2019-02-07T03:31:32.322Z,14.47
2019-02-07T03:36:44.015Z,15.40
2019-02-07T03:42:03.519Z,15.03
2019-02-07T03:47:27.416Z,14.20
2019-02-07T03:52:57.759Z,14.57
2019-02-07T03:58:21.086Z,13.70
2019-02-07T04:03:33.515Z,13.80
2019-02-07T04:08:48.446Z,13.37
2019-02-07T04:13:58.375Z,13.10
2019-02-07T04:19:26.515Z,12.73
2019-02-07T04:24:45.736Z,11.60
2019-02-07T04:30:06.169Z,11.63
2019-02-07T04:35:21.095Z,12.30
2019-02-07T04:40:54.031Z,13.77
2019-02-07T04:45:58.772Z,13.17
2019-02-07T04:51:04.742Z,12.83
2019-02-07T04:56:17.931Z,12.90
2019-02-07T05:01:41.924Z,11.50
2019-02-07T05:06:45.655Z,11.53
2019-02-07T05:11:55.063Z,12.27
2019-02-07T05:17:17.488Z,13.50
2019-02-07T05:22:49.107Z,11.97
2019-02-07T05:28:16.110Z,10.87
2019-02-07T05:33:30.972Z,12.40
2019-02-07T05:38:44.193Z,11.67
2019-02-07T05:44:04.852Z,10.87
2019-02-07T05:49:13.889Z,11.67
2019-02-07T05:54:27.834Z,12.23
2019-02-07T05:59:45.635Z,11.87
2019-02-07T06:05:06.158Z,10.97
2019-02-07T06:10:27.056Z,11.37
2019-02-07T06:15:50.112Z,31.30
2019-02-07T06:21:07.894Z,18.23
2019-02-07T06:26:28.412Z,13.17
2019-02-07T06:31:46.152Z,12.17
2019-02-07T06:36:57.604Z,12.50
2019-02-07T06:42:18.210Z,11.93
2019-02-07T06:47:33.758Z,11.23
2019-02-07T06:53:00.398Z,11.90
2019-02-07T06:58:22.815Z,12.43
2019-02-07T07:03:40.439Z,12.33
2019-02-07T07:09:10.195Z,14.03
2019-02-07T07:14:27.598Z,15.17
2019-02-07T07:19:47.547Z,15.13
2019-02-07T07:25:05.851Z,14.87
2019-02-07T07:30:19.298Z,14.40
2019-02-07T07:35:40.009Z,15.00
2019-02-07T07:41:03.623Z,15.50
2019-02-07T07:46:36.686Z,15.47
2019-02-07T07:51:50.137Z,14.77
2019-02-07T07:57:13.759Z,15.33
2019-02-07T08:02:40.452Z,14.03
2019-02-07T08:07:57.874Z,12.97
2019-02-07T08:13:15.827Z,13.67
2019-02-07T08:18:33.480Z,13.97
2019-02-07T08:23:47.212Z,15.57
2019-02-07T08:29:05.026Z,16.13
2019-02-07T08:34:22.664Z,14.53
2019-02-07T08:39:45.368Z,15.40
2019-02-07T08:45:06.181Z,13.57
2019-02-07T08:50:19.800Z,14.13
2019-02-07T08:55:35.010Z,12.90
2019-02-07T09:00:50.082Z,13.23
2019-02-07T09:06:19.302Z,12.20
2019-02-07T09:12:19.235Z,15.33
2019-02-07T09:18:11.416Z,19.23
2019-02-07T09:23:54.003Z,13.10
2019-02-07T09:29:05.857Z,8.13
2019-02-07T09:34:29.212Z,10.27
2019-02-07T09:39:42.657Z,9.80
2019-02-07T09:45:01.980Z,9.63
2019-02-07T09:50:28.238Z,10.17
2019-02-07T09:55:44.109Z,10.07
2019-02-07T10:00:50.471Z,8.03
2019-02-07T10:06:06.043Z,7.53
2019-02-07T10:11:40.436Z,7.23
2019-02-07T10:17:07.374Z,6.23
2019-02-07T10:22:12.659Z,6.23
2019-02-07T10:27:26.583Z,7.20
2019-02-07T10:32:44.443Z,8.70
2019-02-07T10:37:59.601Z,6.80
2019-02-07T10:43:13.179Z,5.57
2019-02-07T10:48:44.224Z,6.40
2019-02-07T10:54:05.220Z,6.20
2019-02-07T10:59:11.341Z,5.83
2019-02-07T11:04:26.442Z,5.80
2019-02-07T11:09:52.301Z,6.40
2019-02-07T11:15:16.070Z,5.97
2019-02-07T11:20:30.150Z,6.63
2019-02-07T11:25:48.241Z,6.90
2019-02-07T11:31:08.865Z,6.60
2019-02-07T11:36:34.443Z,6.20
2019-02-07T11:41:49.128Z,5.83
2019-02-07T11:47:07.556Z,5.60
2019-02-07T11:52:35.240Z,5.20
2019-02-07T11:57:50.004Z,7.30
2019-02-07T12:03:04.804Z,7.30
2019-02-07T12:08:16.105Z,6.70
2019-02-07T12:13:22.820Z,7.37
2019-02-07T12:18:31.371Z,6.40
2019-02-07T12:23:44.814Z,7.63
2019-02-07T12:29:01.432Z,8.13
2019-02-07T12:34:03.316Z,8.70
2019-02-07T12:39:21.104Z,9.53
2019-02-07T12:44:31.670Z,9.00
2019-02-07T12:49:52.813Z,9.23
2019-02-07T12:54:57.150Z,9.27
2019-02-07T13:00:15.649Z,9.53
2019-02-07T13:05:32.070Z,10.80
2019-02-07T13:10:51.367Z,11.07
2019-02-07T13:16:09.875Z,11.37
2019-02-07T13:21:21.824Z,12.03
2019-02-07T13:26:36.537Z,11.97
2019-02-07T13:31:49.968Z,12.17
2019-02-07T13:37:17.053Z,12.20
2019-02-07T13:42:37.589Z,12.43
2019-02-07T13:47:52.222Z,12.87
2019-02-07T13:53:05.079Z,11.73
2019-02-07T13:58:19.536Z,12.57
2019-02-07T14:03:33.382Z,12.40
2019-02-07T14:08:51.501Z,12.80
2019-02-07T14:14:12.357Z,13.53
2019-02-07T14:19:40.810Z,12.50
2019-02-07T14:25:00.179Z,12.77
2019-02-07T14:30:12.752Z,12.77
2019-02-07T14:35:36.044Z,12.63
2019-02-07T14:41:02.717Z,13.60
2019-02-07T14:46:46.554Z,13.40
2019-02-07T14:51:49.557Z,13.33
2019-02-07T14:56:46.877Z,13.93
2019-02-07T15:01:45.455Z,14.57
2019-02-07T15:06:46.956Z,15.90
2019-02-07T15:11:48.704Z,15.80
2019-02-07T15:16:49.438Z,14.60
2019-02-07T15:21:43.590Z,16.33
2019-02-07T15:26:41.472Z,19.00
2019-02-07T15:31:37.793Z,22.90
2019-02-07T15:36:34.957Z,19.57
2019-02-07T15:41:34.417Z,18.03
2019-02-07T15:46:31.655Z,18.20
2019-02-07T15:51:29.052Z,17.97
2019-02-07T15:56:25.421Z,18.33
2019-02-07T16:01:59.221Z,17.27
2019-02-07T16:06:55.888Z,16.17
2019-02-07T16:11:52.910Z,17.10
2019-02-07T16:16:49.342Z,18.20
2019-02-07T16:21:46.112Z,23.23
2019-02-07T16:26:42.971Z,39.43
2019-02-07T16:31:39.958Z,30.90
2019-02-07T16:36:36.497Z,29.17
2019-02-07T16:41:33.385Z,29.47
2019-02-07T16:46:33.627Z,23.67
2019-02-07T16:51:30.769Z,24.67
2019-02-07T16:56:26.881Z,20.83
2019-02-07T17:01:24.516Z,19.80
2019-02-07T17:06:22.930Z,18.70
2019-02-07T17:11:20.306Z,18.53
2019-02-07T17:16:18.567Z,19.80
2019-02-07T17:21:16.604Z,21.53
2019-02-07T17:26:12.853Z,23.30
2019-02-07T17:31:08.988Z,18.63
2019-02-07T17:36:05.022Z,18.63
2019-02-07T17:41:02.184Z,19.63
2019-02-07T17:45:58.127Z,20.03
2019-02-07T17:50:54.775Z,22.10
2019-02-07T17:55:50.684Z,21.03
2019-02-07T18:01:03.752Z,20.90
2019-02-07T18:05:59.677Z,23.87
2019-02-07T18:10:55.922Z,25.87
2019-02-07T18:15:51.881Z,29.20
2019-02-07T18:20:47.779Z,39.27
2019-02-07T18:25:43.965Z,24.30
2019-02-07T18:30:39.827Z,22.13
2019-02-07T18:35:35.692Z,25.90
2019-02-07T18:40:33.242Z,27.17
2019-02-07T18:45:29.792Z,30.27
2019-02-07T18:50:31.213Z,29.00
2019-02-07T18:55:27.245Z,23.87
2019-02-07T19:00:25.796Z,22.37
2019-02-07T19:05:23.277Z,24.67
2019-02-07T19:10:21.014Z,24.07
2019-02-07T19:15:19.840Z,25.63
2019-02-07T19:20:17.497Z,24.33
2019-02-07T19:25:14.496Z,26.10
2019-02-07T19:30:23.067Z,27.60
2019-02-07T19:35:19.043Z,26.87
2019-02-07T19:40:15.005Z,30.70
2019-02-07T19:45:12.058Z,25.70
2019-02-07T19:50:10.559Z,27.33
2019-02-07T19:55:08.411Z,26.83
2019-02-07T20:00:06.889Z,25.03
2019-02-07T20:05:02.833Z,24.00
2019-02-07T20:09:58.696Z,26.43
2019-02-07T20:14:56.683Z,24.73
2019-02-07T20:19:54.268Z,26.00
2019-02-07T20:24:50.091Z,26.87
2019-02-07T20:29:45.864Z,26.47
2019-02-07T20:34:41.859Z,25.87
2019-02-07T20:39:39.335Z,23.47
2019-02-07T20:44:36.290Z,27.00
2019-02-07T20:49:35.401Z,44.93
2019-02-07T20:54:32.262Z,34.27
2019-02-07T20:59:28.888Z,33.43
2019-02-07T21:04:26.734Z,38.97
2019-02-07T21:09:22.601Z,40.30
2019-02-07T21:14:20.262Z,40.57
2019-02-07T21:19:16.289Z,45.70
2019-02-07T21:24:12.120Z,44.87
2019-02-07T21:29:08.092Z,41.53
2019-02-07T21:34:04.389Z,42.17
2019-02-07T21:39:02.565Z,38.80
2019-02-07T21:43:59.921Z,31.70
2019-02-07T21:48:58.109Z,31.90
2019-02-07T21:53:54.925Z,32.13
2019-02-07T21:58:50.921Z,33.57
2019-02-07T22:03:46.637Z,33.03
2019-02-07T22:08:42.747Z,33.03
2019-02-07T22:13:39.801Z,29.40
2019-02-07T22:18:35.557Z,27.57
2019-02-07T22:23:31.373Z,28.70
2019-02-07T22:28:27.565Z,27.10
2019-02-07T22:33:23.608Z,28.37
2019-02-07T22:38:19.308Z,26.83
2019-02-07T22:43:25.283Z,26.33
2019-02-07T22:48:21.088Z,24.93
2019-02-07T22:53:17.432Z,23.63
2019-02-07T22:58:13.716Z,23.30
2019-02-07T23:03:09.923Z,23.90
2019-02-07T23:08:06.076Z,24.60
2019-02-07T23:13:01.950Z,24.57
2019-02-07T23:17:57.719Z,26.37
2019-02-07T23:22:53.781Z,24.60
2019-02-07T23:27:49.555Z,25.33
2019-02-07T23:32:45.698Z,25.80
2019-02-07T23:37:41.556Z,24.27
2019-02-07T23:42:37.355Z,26.93
2019-02-07T23:47:34.090Z,25.00
2019-02-07T23:52:29.848Z,25.60
2019-02-07T23:57:25.650Z,26.30
